sensor_id;sensor_type;location;lat;lon;timestamp;temperature;humidity
32660;DHT22;19064;47.912;12.308;2023-05-02T00:02:13;10.10;99.90
32660;DHT22;19064;47.912;12.308;2023-05-02T00:04:41;10.10;99.90
32660;DHT22;19064;47.912;12.308;2023-05-02T00:07:08;10.20;99.90
32660;DHT22;19064;47.912;12.308;2023-05-02T00:09:35;10.30;99.90
32660;DHT22;19064;47.912;12.308;2023-05-02T00:12:01;10.30;99.90
32660;DHT22;19064;47.912;12.308;2023-05-02T00:14:28;10.40;99.90
32660;DHT22;19064;47.912;12.308;2023-05-02T00:16:55;10.30;99.90
32660;DHT22;19064;47.912;12.308;2023-05-02T00:19:22;10.30;99.90
32660;DHT22;19064;47.912;12.308;2023-05-02T00:21:50;10.40;99.90
32660;DHT22;19064;47.912;12.308;2023-05-02T00:24:17;10.30;99.90
32660;DHT22;19064;47.912;12.308;2023-05-02T00:26:43;10.20;99.90
32660;DHT22;19064;47.912;12.308;2023-05-02T00:29:10;10.00;99.90
32660;DHT22;19064;47.912;12.308;2023-05-02T00:31:39;10.20;99.90
32660;DHT22;19064;47.912;12.308;2023-05-02T00:34:06;10.20;99.90
32660;DHT22;19064;47.912;12.308;2023-05-02T00:36:33;10.20;99.90
32660;DHT22;19064;47.912;12.308;2023-05-02T00:39:01;10.20;99.90
32660;DHT22;19064;47.912;12.308;2023-05-02T00:41:28;10.20;99.90
32660;DHT22;19064;47.912;12.308;2023-05-02T00:43:55;10.30;99.90
32660;DHT22;19064;47.912;12.308;2023-05-02T00:46:23;10.00;99.90
32660;DHT22;19064;47.912;12.308;2023-05-02T00:48:50;10.00;99.90
32660;DHT22;19064;47.912;12.308;2023-05-02T00:51:17;10.10;99.90
32660;DHT22;19064;47.912;12.308;2023-05-02T00:53:44;10.20;99.90
32660;DHT22;19064;47.912;12.308;2023-05-02T00:56:13;10.30;99.90
32660;DHT22;19064;47.912;12.308;2023-05-02T00:58:40;10.20;99.90
32660;DHT22;19064;47.912;12.308;2023-05-02T01:01:20;10.10;99.90
32660;DHT22;19064;47.912;12.308;2023-05-02T01:04:01;10.10;99.90
32660;DHT22;19064;47.912;12.308;2023-05-02T01:06:35;10.20;99.90
32660;DHT22;19064;47.912;12.308;2023-05-02T01:09:15;10.20;99.90
32660;DHT22;19064;47.912;12.308;2023-05-02T01:11:52;10.10;99.90
32660;DHT22;19064;47.912;12.308;2023-05-02T01:14:24;10.20;99.90
32660;DHT22;19064;47.912;12.308;2023-05-02T01:16:52;10.30;99.90
32660;DHT22;19064;47.912;12.308;2023-05-02T01:19:24;10.30;99.90
32660;DHT22;19064;47.912;12.308;2023-05-02T01:21:54;10.30;99.90
32660;DHT22;19064;47.912;12.308;2023-05-02T01:24:25;10.30;99.90
32660;DHT22;19064;47.912;12.308;2023-05-02T01:27:06;10.30;99.90
32660;DHT22;19064;47.912;12.308;2023-05-02T01:29:39;10.20;99.90
32660;DHT22;19064;47.912;12.308;2023-05-02T01:32:07;10.10;99.90
32660;DHT22;19064;47.912;12.308;2023-05-02T01:34:36;10.10;99.90
32660;DHT22;19064;47.912;12.308;2023-05-02T01:37:05;10.10;99.90
32660;DHT22;19064;47.912;12.308;2023-05-02T01:39:35;9.90;99.90
32660;DHT22;19064;47.912;12.308;2023-05-02T01:42:03;10.00;99.90
32660;DHT22;19064;47.912;12.308;2023-05-02T01:44:31;9.90;99.90
32660;DHT22;19064;47.912;12.308;2023-05-02T01:47:04;9.70;99.90
32660;DHT22;19064;47.912;12.308;2023-05-02T01:49:32;9.70;99.90
32660;DHT22;19064;47.912;12.308;2023-05-02T01:52:02;9.60;99.90
32660;DHT22;19064;47.912;12.308;2023-05-02T01:54:32;9.50;99.90
32660;DHT22;19064;47.912;12.308;2023-05-02T01:57:02;9.50;99.90
32660;DHT22;19064;47.912;12.308;2023-05-02T01:59:32;9.60;99.90
32660;DHT22;19064;47.912;12.308;2023-05-02T02:02:01;9.60;99.90
32660;DHT22;19064;47.912;12.308;2023-05-02T02:04:28;9.70;99.90
32660;DHT22;19064;47.912;12.308;2023-05-02T02:07:00;9.80;99.90
32660;DHT22;19064;47.912;12.308;2023-05-02T02:09:28;9.90;99.90
32660;DHT22;19064;47.912;12.308;2023-05-02T02:12:00;9.90;99.90
32660;DHT22;19064;47.912;12.308;2023-05-02T02:14:37;9.80;99.90
32660;DHT22;19064;47.912;12.308;2023-05-02T02:17:12;9.90;99.90
32660;DHT22;19064;47.912;12.308;2023-05-02T02:19:41;9.90;99.90
32660;DHT22;19064;47.912;12.308;2023-05-02T02:22:08;9.90;99.90
32660;DHT22;19064;47.912;12.308;2023-05-02T02:24:36;9.90;99.90
32660;DHT22;19064;47.912;12.308;2023-05-02T02:27:04;10.00;99.90
32660;DHT22;19064;47.912;12.308;2023-05-02T02:29:31;10.00;99.90
32660;DHT22;19064;47.912;12.308;2023-05-02T02:31:58;10.00;99.90
32660;DHT22;19064;47.912;12.308;2023-05-02T02:34:26;10.10;99.90
32660;DHT22;19064;47.912;12.308;2023-05-02T02:36:57;10.20;99.90
32660;DHT22;19064;47.912;12.308;2023-05-02T02:39:36;10.10;99.90
32660;DHT22;19064;47.912;12.308;2023-05-02T02:42:11;10.20;99.90
32660;DHT22;19064;47.912;12.308;2023-05-02T02:44:46;10.20;99.90
32660;DHT22;19064;47.912;12.308;2023-05-02T02:47:23;10.20;99.90
32660;DHT22;19064;47.912;12.308;2023-05-02T02:50:04;10.20;99.90
32660;DHT22;19064;47.912;12.308;2023-05-02T02:52:42;10.20;99.90
32660;DHT22;19064;47.912;12.308;2023-05-02T02:55:14;10.10;99.90
32660;DHT22;19064;47.912;12.308;2023-05-02T02:57:47;10.10;99.90
32660;DHT22;19064;47.912;12.308;2023-05-02T03:00:19;10.20;99.90
32660;DHT22;19064;47.912;12.308;2023-05-02T03:02:47;10.10;99.90
32660;DHT22;19064;47.912;12.308;2023-05-02T03:05:15;10.10;99.90
32660;DHT22;19064;47.912;12.308;2023-05-02T03:07:43;10.10;99.90
32660;DHT22;19064;47.912;12.308;2023-05-02T03:10:09;10.00;99.90
32660;DHT22;19064;47.912;12.308;2023-05-02T03:12:36;9.90;99.90
32660;DHT22;19064;47.912;12.308;2023-05-02T03:15:19;9.90;99.90
32660;DHT22;19064;47.912;12.308;2023-05-02T03:17:48;9.80;99.90
32660;DHT22;19064;47.912;12.308;2023-05-02T03:20:17;10.00;99.90
32660;DHT22;19064;47.912;12.308;2023-05-02T03:22:43;9.90;99.90
32660;DHT22;19064;47.912;12.308;2023-05-02T03:25:10;9.90;99.90
32660;DHT22;19064;47.912;12.308;2023-05-02T03:27:37;10.00;99.90
32660;DHT22;19064;47.912;12.308;2023-05-02T03:30:04;10.10;99.90
32660;DHT22;19064;47.912;12.308;2023-05-02T03:32:31;10.00;99.90
32660;DHT22;19064;47.912;12.308;2023-05-02T03:34:58;9.90;99.90
32660;DHT22;19064;47.912;12.308;2023-05-02T03:37:26;10.00;99.90
32660;DHT22;19064;47.912;12.308;2023-05-02T03:39:53;10.10;99.90
32660;DHT22;19064;47.912;12.308;2023-05-02T03:42:20;10.10;99.90
32660;DHT22;19064;47.912;12.308;2023-05-02T03:44:47;10.10;99.90
32660;DHT22;19064;47.912;12.308;2023-05-02T03:47:17;10.20;99.90
32660;DHT22;19064;47.912;12.308;2023-05-02T03:49:43;10.10;99.90
32660;DHT22;19064;47.912;12.308;2023-05-02T03:52:11;10.20;99.90
32660;DHT22;19064;47.912;12.308;2023-05-02T03:54:39;10.20;99.90
32660;DHT22;19064;47.912;12.308;2023-05-02T03:57:06;10.20;99.90
32660;DHT22;19064;47.912;12.308;2023-05-02T03:59:33;10.20;99.90
32660;DHT22;19064;47.912;12.308;2023-05-02T04:02:00;10.30;99.90
32660;DHT22;19064;47.912;12.308;2023-05-02T04:04:27;10.20;99.90
32660;DHT22;19064;47.912;12.308;2023-05-02T04:06:53;10.10;99.90
32660;DHT22;19064;47.912;12.308;2023-05-02T04:09:20;10.10;99.90
32660;DHT22;19064;47.912;12.308;2023-05-02T04:11:51;10.10;99.90
32660;DHT22;19064;47.912;12.308;2023-05-02T04:14:17;10.10;99.90
32660;DHT22;19064;47.912;12.308;2023-05-02T04:16:47;10.10;99.90
32660;DHT22;19064;47.912;12.308;2023-05-02T04:19:16;10.00;99.90
32660;DHT22;19064;47.912;12.308;2023-05-02T04:21:44;10.00;99.90
32660;DHT22;19064;47.912;12.308;2023-05-02T04:24:12;9.90;99.90
32660;DHT22;19064;47.912;12.308;2023-05-02T04:26:40;10.00;99.90
32660;DHT22;19064;47.912;12.308;2023-05-02T04:29:10;9.90;99.90
32660;DHT22;19064;47.912;12.308;2023-05-02T04:31:42;9.90;99.90
32660;DHT22;19064;47.912;12.308;2023-05-02T04:34:10;9.90;99.90
32660;DHT22;19064;47.912;12.308;2023-05-02T04:36:38;9.90;99.90
32660;DHT22;19064;47.912;12.308;2023-05-02T04:39:06;10.00;99.90
32660;DHT22;19064;47.912;12.308;2023-05-02T04:41:34;10.00;99.90
32660;DHT22;19064;47.912;12.308;2023-05-02T04:44:02;9.90;99.90
32660;DHT22;19064;47.912;12.308;2023-05-02T04:46:30;9.90;99.90
32660;DHT22;19064;47.912;12.308;2023-05-02T04:48:57;10.00;99.90
32660;DHT22;19064;47.912;12.308;2023-05-02T04:51:24;10.00;99.90
32660;DHT22;19064;47.912;12.308;2023-05-02T04:53:52;9.80;99.90
32660;DHT22;19064;47.912;12.308;2023-05-02T04:56:19;9.90;99.90
32660;DHT22;19064;47.912;12.308;2023-05-02T04:58:46;9.80;99.90
32660;DHT22;19064;47.912;12.308;2023-05-02T05:01:13;9.70;99.90
32660;DHT22;19064;47.912;12.308;2023-05-02T05:03:41;9.70;99.90
32660;DHT22;19064;47.912;12.308;2023-05-02T05:06:07;9.70;99.90
32660;DHT22;19064;47.912;12.308;2023-05-02T05:08:34;9.80;99.90
32660;DHT22;19064;47.912;12.308;2023-05-02T05:11:01;9.90;99.90
32660;DHT22;19064;47.912;12.308;2023-05-02T05:13:29;10.00;99.90
32660;DHT22;19064;47.912;12.308;2023-05-02T05:15:56;10.10;99.90
32660;DHT22;19064;47.912;12.308;2023-05-02T05:18:23;10.10;99.90
32660;DHT22;19064;47.912;12.308;2023-05-02T05:20:51;10.10;99.90
32660;DHT22;19064;47.912;12.308;2023-05-02T05:23:19;10.20;99.90
32660;DHT22;19064;47.912;12.308;2023-05-02T05:25:47;10.20;99.90
32660;DHT22;19064;47.912;12.308;2023-05-02T05:28:15;10.30;99.90
32660;DHT22;19064;47.912;12.308;2023-05-02T05:30:46;10.30;99.90
32660;DHT22;19064;47.912;12.308;2023-05-02T05:33:12;10.30;99.90
32660;DHT22;19064;47.912;12.308;2023-05-02T05:35:41;10.30;99.90
32660;DHT22;19064;47.912;12.308;2023-05-02T05:38:10;10.40;99.90
32660;DHT22;19064;47.912;12.308;2023-05-02T05:40:40;10.30;99.90
32660;DHT22;19064;47.912;12.308;2023-05-02T05:43:07;10.40;99.90
32660;DHT22;19064;47.912;12.308;2023-05-02T05:45:34;10.40;99.90
32660;DHT22;19064;47.912;12.308;2023-05-02T05:48:00;10.40;99.90
32660;DHT22;19064;47.912;12.308;2023-05-02T05:50:28;10.50;99.90
32660;DHT22;19064;47.912;12.308;2023-05-02T05:52:54;10.50;99.90
32660;DHT22;19064;47.912;12.308;2023-05-02T05:55:23;10.40;99.90
32660;DHT22;19064;47.912;12.308;2023-05-02T05:57:49;10.50;99.90
32660;DHT22;19064;47.912;12.308;2023-05-02T06:00:18;10.50;99.90
32660;DHT22;19064;47.912;12.308;2023-05-02T06:02:47;10.50;99.90
32660;DHT22;19064;47.912;12.308;2023-05-02T06:05:13;10.60;99.90
32660;DHT22;19064;47.912;12.308;2023-05-02T06:07:40;10.50;99.90
32660;DHT22;19064;47.912;12.308;2023-05-02T06:10:08;10.40;99.90
32660;DHT22;19064;47.912;12.308;2023-05-02T06:12:36;10.40;99.90
32660;DHT22;19064;47.912;12.308;2023-05-02T06:15:04;10.50;99.90
32660;DHT22;19064;47.912;12.308;2023-05-02T06:17:31;10.50;99.90
32660;DHT22;19064;47.912;12.308;2023-05-02T06:19:58;10.50;99.90
32660;DHT22;19064;47.912;12.308;2023-05-02T06:22:25;10.60;99.90
32660;DHT22;19064;47.912;12.308;2023-05-02T06:24:52;10.60;99.90
32660;DHT22;19064;47.912;12.308;2023-05-02T06:27:20;10.70;99.90
32660;DHT22;19064;47.912;12.308;2023-05-02T06:29:51;10.70;99.90
32660;DHT22;19064;47.912;12.308;2023-05-02T06:32:19;10.80;99.90
32660;DHT22;19064;47.912;12.308;2023-05-02T06:34:47;10.80;99.90
32660;DHT22;19064;47.912;12.308;2023-05-02T06:37:16;10.80;99.90
32660;DHT22;19064;47.912;12.308;2023-05-02T06:39:44;10.80;99.90
32660;DHT22;19064;47.912;12.308;2023-05-02T06:42:11;10.80;99.90
32660;DHT22;19064;47.912;12.308;2023-05-02T06:44:38;10.80;99.90
32660;DHT22;19064;47.912;12.308;2023-05-02T06:47:06;10.80;99.90
32660;DHT22;19064;47.912;12.308;2023-05-02T06:49:33;10.90;99.90
32660;DHT22;19064;47.912;12.308;2023-05-02T06:52:00;10.90;99.90
32660;DHT22;19064;47.912;12.308;2023-05-02T06:54:27;11.00;99.90
32660;DHT22;19064;47.912;12.308;2023-05-02T06:56:53;11.00;99.90
32660;DHT22;19064;47.912;12.308;2023-05-02T06:59:20;11.10;99.90
32660;DHT22;19064;47.912;12.308;2023-05-02T07:01:47;11.10;99.90
32660;DHT22;19064;47.912;12.308;2023-05-02T07:04:15;11.10;99.90
32660;DHT22;19064;47.912;12.308;2023-05-02T07:06:41;11.10;99.90
32660;DHT22;19064;47.912;12.308;2023-05-02T07:09:08;11.20;99.90
32660;DHT22;19064;47.912;12.308;2023-05-02T07:11:35;11.30;99.90
32660;DHT22;19064;47.912;12.308;2023-05-02T07:14:02;11.40;99.90
32660;DHT22;19064;47.912;12.308;2023-05-02T07:16:28;11.40;99.90
32660;DHT22;19064;47.912;12.308;2023-05-02T07:18:56;11.50;99.90
32660;DHT22;19064;47.912;12.308;2023-05-02T07:21:29;11.50;99.90
32660;DHT22;19064;47.912;12.308;2023-05-02T07:23:56;11.50;99.90
32660;DHT22;19064;47.912;12.308;2023-05-02T07:26:23;11.50;99.90
32660;DHT22;19064;47.912;12.308;2023-05-02T07:28:52;11.60;99.90
32660;DHT22;19064;47.912;12.308;2023-05-02T07:31:18;11.60;99.90
32660;DHT22;19064;47.912;12.308;2023-05-02T07:33:46;11.60;99.90
32660;DHT22;19064;47.912;12.308;2023-05-02T07:36:13;11.60;99.90
32660;DHT22;19064;47.912;12.308;2023-05-02T07:38:41;11.70;99.90
32660;DHT22;19064;47.912;12.308;2023-05-02T07:41:08;11.80;99.90
32660;DHT22;19064;47.912;12.308;2023-05-02T07:43:34;11.90;99.90
32660;DHT22;19064;47.912;12.308;2023-05-02T07:46:03;12.00;99.90
32660;DHT22;19064;47.912;12.308;2023-05-02T07:48:31;12.00;99.90
32660;DHT22;19064;47.912;12.308;2023-05-02T07:51:05;12.10;99.90
32660;DHT22;19064;47.912;12.308;2023-05-02T07:53:31;12.20;99.90
32660;DHT22;19064;47.912;12.308;2023-05-02T07:55:59;12.20;99.90
32660;DHT22;19064;47.912;12.308;2023-05-02T07:58:26;12.30;99.90
32660;DHT22;19064;47.912;12.308;2023-05-02T08:00:53;12.30;99.90
32660;DHT22;19064;47.912;12.308;2023-05-02T08:03:20;12.40;99.90
32660;DHT22;19064;47.912;12.308;2023-05-02T08:05:47;12.50;99.90
32660;DHT22;19064;47.912;12.308;2023-05-02T08:08:15;12.50;99.90
32660;DHT22;19064;47.912;12.308;2023-05-02T08:10:42;12.50;99.90
32660;DHT22;19064;47.912;12.308;2023-05-02T08:13:10;12.60;99.90
32660;DHT22;19064;47.912;12.308;2023-05-02T08:15:37;12.70;99.90
32660;DHT22;19064;47.912;12.308;2023-05-02T08:18:03;12.70;99.90
32660;DHT22;19064;47.912;12.308;2023-05-02T08:20:30;12.70;99.90
32660;DHT22;19064;47.912;12.308;2023-05-02T08:22:57;12.70;99.90
32660;DHT22;19064;47.912;12.308;2023-05-02T08:25:24;12.70;99.90
32660;DHT22;19064;47.912;12.308;2023-05-02T08:27:50;12.80;99.90
32660;DHT22;19064;47.912;12.308;2023-05-02T08:30:18;12.80;99.90
32660;DHT22;19064;47.912;12.308;2023-05-02T08:32:45;12.80;99.90
32660;DHT22;19064;47.912;12.308;2023-05-02T08:35:12;12.90;99.90
32660;DHT22;19064;47.912;12.308;2023-05-02T08:37:39;12.70;99.90
32660;DHT22;19064;47.912;12.308;2023-05-02T08:40:11;12.50;99.90
32660;DHT22;19064;47.912;12.308;2023-05-02T08:42:41;12.60;99.90
32660;DHT22;19064;47.912;12.308;2023-05-02T08:45:09;12.70;99.90
32660;DHT22;19064;47.912;12.308;2023-05-02T08:47:39;12.80;99.90
32660;DHT22;19064;47.912;12.308;2023-05-02T08:50:08;12.90;99.90
32660;DHT22;19064;47.912;12.308;2023-05-02T08:52:35;13.00;99.90
32660;DHT22;19064;47.912;12.308;2023-05-02T08:55:02;13.00;99.90
32660;DHT22;19064;47.912;12.308;2023-05-02T08:57:29;13.10;99.90
32660;DHT22;19064;47.912;12.308;2023-05-02T08:59:56;13.30;99.90
32660;DHT22;19064;47.912;12.308;2023-05-02T09:05:19;13.50;99.90
32660;DHT22;19064;47.912;12.308;2023-05-02T09:07:49;13.60;99.90
32660;DHT22;19064;47.912;12.308;2023-05-02T09:10:16;13.60;99.90
32660;DHT22;19064;47.912;12.308;2023-05-02T09:12:43;13.30;99.90
32660;DHT22;19064;47.912;12.308;2023-05-02T09:15:11;13.00;99.90
32660;DHT22;19064;47.912;12.308;2023-05-02T09:17:40;13.00;99.90
32660;DHT22;19064;47.912;12.308;2023-05-02T09:20:07;13.30;99.90
32660;DHT22;19064;47.912;12.308;2023-05-02T09:22:37;13.30;99.90
32660;DHT22;19064;47.912;12.308;2023-05-02T09:25:05;13.40;99.90
32660;DHT22;19064;47.912;12.308;2023-05-02T09:27:50;13.30;99.90
32660;DHT22;19064;47.912;12.308;2023-05-02T09:30:19;13.50;99.90
32660;DHT22;19064;47.912;12.308;2023-05-02T09:32:48;13.60;99.90
32660;DHT22;19064;47.912;12.308;2023-05-02T09:35:17;13.70;99.90
32660;DHT22;19064;47.912;12.308;2023-05-02T09:37:50;13.70;99.90
32660;DHT22;19064;47.912;12.308;2023-05-02T09:40:17;13.70;99.90
32660;DHT22;19064;47.912;12.308;2023-05-02T09:42:44;13.70;99.90
32660;DHT22;19064;47.912;12.308;2023-05-02T09:45:19;13.70;99.90
32660;DHT22;19064;47.912;12.308;2023-05-02T09:47:47;13.70;99.90
32660;DHT22;19064;47.912;12.308;2023-05-02T09:50:32;13.70;99.90
32660;DHT22;19064;47.912;12.308;2023-05-02T09:53:05;13.80;99.90
32660;DHT22;19064;47.912;12.308;2023-05-02T09:55:32;13.90;99.90
32660;DHT22;19064;47.912;12.308;2023-05-02T09:57:59;14.00;99.90
32660;DHT22;19064;47.912;12.308;2023-05-02T10:00:39;14.00;99.90
32660;DHT22;19064;47.912;12.308;2023-05-02T10:03:06;14.00;99.90
32660;DHT22;19064;47.912;12.308;2023-05-02T10:05:38;14.00;99.90
32660;DHT22;19064;47.912;12.308;2023-05-02T10:08:09;14.10;99.90
32660;DHT22;19064;47.912;12.308;2023-05-02T10:10:39;14.10;99.90
32660;DHT22;19064;47.912;12.308;2023-05-02T10:13:08;14.20;99.90
32660;DHT22;19064;47.912;12.308;2023-05-02T10:15:41;14.10;99.90
32660;DHT22;19064;47.912;12.308;2023-05-02T10:18:11;14.10;99.90
32660;DHT22;19064;47.912;12.308;2023-05-02T10:20:43;14.10;99.90
32660;DHT22;19064;47.912;12.308;2023-05-02T10:23:16;14.10;99.90
32660;DHT22;19064;47.912;12.308;2023-05-02T10:25:43;14.30;99.90
32660;DHT22;19064;47.912;12.308;2023-05-02T10:28:12;14.30;99.90
32660;DHT22;19064;47.912;12.308;2023-05-02T10:30:40;14.30;99.90
32660;DHT22;19064;47.912;12.308;2023-05-02T10:33:07;14.30;99.90
32660;DHT22;19064;47.912;12.308;2023-05-02T10:35:35;14.30;99.90
32660;DHT22;19064;47.912;12.308;2023-05-02T10:38:02;14.30;99.90
32660;DHT22;19064;47.912;12.308;2023-05-02T10:40:33;14.30;99.90
32660;DHT22;19064;47.912;12.308;2023-05-02T10:43:03;14.30;99.90
32660;DHT22;19064;47.912;12.308;2023-05-02T10:45:32;14.30;99.90
32660;DHT22;19064;47.912;12.308;2023-05-02T10:48:13;14.20;99.90
32660;DHT22;19064;47.912;12.308;2023-05-02T10:50:47;14.20;99.90
32660;DHT22;19064;47.912;12.308;2023-05-02T10:53:30;14.40;99.90
32660;DHT22;19064;47.912;12.308;2023-05-02T10:56:16;14.40;99.90
32660;DHT22;19064;47.912;12.308;2023-05-02T10:58:46;14.40;99.90
32660;DHT22;19064;47.912;12.308;2023-05-02T11:01:32;14.40;99.90
32660;DHT22;19064;47.912;12.308;2023-05-02T11:04:04;14.50;99.90
32660;DHT22;19064;47.912;12.308;2023-05-02T11:06:32;14.50;99.90
32660;DHT22;19064;47.912;12.308;2023-05-02T11:09:35;14.40;99.90
32660;DHT22;19064;47.912;12.308;2023-05-02T11:12:04;14.30;99.90
32660;DHT22;19064;47.912;12.308;2023-05-02T11:14:50;14.50;99.90
32660;DHT22;19064;47.912;12.308;2023-05-02T11:17:18;14.60;99.90
32660;DHT22;19064;47.912;12.308;2023-05-02T11:22:57;14.80;99.90
32660;DHT22;19064;47.912;12.308;2023-05-02T11:25:36;14.80;99.90
32660;DHT22;19064;47.912;12.308;2023-05-02T11:28:07;14.80;99.90
32660;DHT22;19064;47.912;12.308;2023-05-02T11:30:53;14.80;99.90
32660;DHT22;19064;47.912;12.308;2023-05-02T11:33:21;14.60;99.90
32660;DHT22;19064;47.912;12.308;2023-05-02T11:35:50;14.70;99.90
32660;DHT22;19064;47.912;12.308;2023-05-02T11:38:19;14.70;99.90
32660;DHT22;19064;47.912;12.308;2023-05-02T11:40:54;14.50;99.90
32660;DHT22;19064;47.912;12.308;2023-05-02T11:43:23;14.70;99.90
32660;DHT22;19064;47.912;12.308;2023-05-02T11:45:51;14.80;99.90
32660;DHT22;19064;47.912;12.308;2023-05-02T11:48:21;14.70;99.90
32660;DHT22;19064;47.912;12.308;2023-05-02T11:50:49;14.60;99.90
32660;DHT22;19064;47.912;12.308;2023-05-02T11:53:18;14.80;99.90
32660;DHT22;19064;47.912;12.308;2023-05-02T11:55:48;14.70;99.90
32660;DHT22;19064;47.912;12.308;2023-05-02T11:58:16;14.60;99.90
32660;DHT22;19064;47.912;12.308;2023-05-02T12:00:45;14.40;99.90
32660;DHT22;19064;47.912;12.308;2023-05-02T12:03:22;14.40;99.90
32660;DHT22;19064;47.912;12.308;2023-05-02T12:05:50;14.30;99.90
32660;DHT22;19064;47.912;12.308;2023-05-02T12:08:18;14.50;99.90
32660;DHT22;19064;47.912;12.308;2023-05-02T12:10:45;14.70;99.90
32660;DHT22;19064;47.912;12.308;2023-05-02T12:13:13;14.90;99.90
32660;DHT22;19064;47.912;12.308;2023-05-02T12:15:40;15.00;99.90
32660;DHT22;19064;47.912;12.308;2023-05-02T12:18:08;15.00;99.90
32660;DHT22;19064;47.912;12.308;2023-05-02T12:20:36;15.00;99.90
32660;DHT22;19064;47.912;12.308;2023-05-02T12:23:04;14.80;99.90
32660;DHT22;19064;47.912;12.308;2023-05-02T12:25:36;14.90;99.90
32660;DHT22;19064;47.912;12.308;2023-05-02T12:28:03;14.90;99.90
32660;DHT22;19064;47.912;12.308;2023-05-02T12:30:30;14.90;99.90
32660;DHT22;19064;47.912;12.308;2023-05-02T12:32:59;14.70;99.90
32660;DHT22;19064;47.912;12.308;2023-05-02T12:35:30;14.60;99.90
32660;DHT22;19064;47.912;12.308;2023-05-02T12:38:11;14.50;99.90
32660;DHT22;19064;47.912;12.308;2023-05-02T12:40:44;14.50;99.90
32660;DHT22;19064;47.912;12.308;2023-05-02T12:43:12;14.50;99.90
32660;DHT22;19064;47.912;12.308;2023-05-02T12:45:39;14.30;99.90
32660;DHT22;19064;47.912;12.308;2023-05-02T12:48:23;14.30;99.90
32660;DHT22;19064;47.912;12.308;2023-05-02T12:50:52;14.10;99.90
32660;DHT22;19064;47.912;12.308;2023-05-02T12:53:37;14.10;99.90
32660;DHT22;19064;47.912;12.308;2023-05-02T12:56:05;14.00;99.90
32660;DHT22;19064;47.912;12.308;2023-05-02T12:58:41;14.00;99.90
32660;DHT22;19064;47.912;12.308;2023-05-02T13:01:10;14.00;99.90
32660;DHT22;19064;47.912;12.308;2023-05-02T13:03:38;14.10;99.90
32660;DHT22;19064;47.912;12.308;2023-05-02T13:06:08;14.10;99.90
32660;DHT22;19064;47.912;12.308;2023-05-02T13:08:35;14.20;99.90
32660;DHT22;19064;47.912;12.308;2023-05-02T13:11:03;14.20;99.90
32660;DHT22;19064;47.912;12.308;2023-05-02T13:13:29;14.30;99.90
32660;DHT22;19064;47.912;12.308;2023-05-02T13:15:57;14.30;99.90
32660;DHT22;19064;47.912;12.308;2023-05-02T13:18:24;14.20;99.90
32660;DHT22;19064;47.912;12.308;2023-05-02T13:20:52;14.10;99.90
32660;DHT22;19064;47.912;12.308;2023-05-02T13:23:20;14.00;99.90
32660;DHT22;19064;47.912;12.308;2023-05-02T13:25:47;13.70;99.90
32660;DHT22;19064;47.912;12.308;2023-05-02T13:28:14;13.40;99.90
32660;DHT22;19064;47.912;12.308;2023-05-02T13:30:41;13.10;99.90
32660;DHT22;19064;47.912;12.308;2023-05-02T13:33:07;12.90;99.90
32660;DHT22;19064;47.912;12.308;2023-05-02T13:35:34;12.80;99.90
32660;DHT22;19064;47.912;12.308;2023-05-02T13:38:01;12.60;99.90
32660;DHT22;19064;47.912;12.308;2023-05-02T13:40:29;12.60;99.90
32660;DHT22;19064;47.912;12.308;2023-05-02T13:42:56;12.50;99.90
32660;DHT22;19064;47.912;12.308;2023-05-02T13:45:22;12.20;99.90
32660;DHT22;19064;47.912;12.308;2023-05-02T13:47:49;12.00;99.90
32660;DHT22;19064;47.912;12.308;2023-05-02T13:50:16;11.90;99.90
32660;DHT22;19064;47.912;12.308;2023-05-02T13:52:43;11.90;99.90
32660;DHT22;19064;47.912;12.308;2023-05-02T13:55:09;11.80;99.90
32660;DHT22;19064;47.912;12.308;2023-05-02T13:57:38;11.80;99.90
32660;DHT22;19064;47.912;12.308;2023-05-02T14:00:06;11.80;99.90
32660;DHT22;19064;47.912;12.308;2023-05-02T14:02:34;11.70;99.90
32660;DHT22;19064;47.912;12.308;2023-05-02T14:05:01;11.70;99.90
32660;DHT22;19064;47.912;12.308;2023-05-02T14:07:27;11.60;99.90
32660;DHT22;19064;47.912;12.308;2023-05-02T14:09:55;11.40;99.90
32660;DHT22;19064;47.912;12.308;2023-05-02T14:12:21;11.40;99.90
32660;DHT22;19064;47.912;12.308;2023-05-02T14:14:49;11.30;99.90
32660;DHT22;19064;47.912;12.308;2023-05-02T14:17:16;11.30;99.90
32660;DHT22;19064;47.912;12.308;2023-05-02T14:19:43;11.30;99.90
32660;DHT22;19064;47.912;12.308;2023-05-02T14:22:10;11.10;99.90
32660;DHT22;19064;47.912;12.308;2023-05-02T14:24:36;11.00;99.90
32660;DHT22;19064;47.912;12.308;2023-05-02T14:27:03;11.10;99.90
32660;DHT22;19064;47.912;12.308;2023-05-02T14:29:32;11.00;99.90
32660;DHT22;19064;47.912;12.308;2023-05-02T14:32:00;11.00;99.90
32660;DHT22;19064;47.912;12.308;2023-05-02T14:34:26;10.90;99.90
32660;DHT22;19064;47.912;12.308;2023-05-02T14:36:53;10.80;99.90
32660;DHT22;19064;47.912;12.308;2023-05-02T14:39:20;10.70;99.90
32660;DHT22;19064;47.912;12.308;2023-05-02T14:41:47;10.80;99.90
32660;DHT22;19064;47.912;12.308;2023-05-02T14:44:13;11.00;99.90
32660;DHT22;19064;47.912;12.308;2023-05-02T14:46:40;11.30;99.90
32660;DHT22;19064;47.912;12.308;2023-05-02T14:49:08;11.50;99.90
32660;DHT22;19064;47.912;12.308;2023-05-02T14:51:36;11.70;99.90
32660;DHT22;19064;47.912;12.308;2023-05-02T14:54:07;11.80;99.90
32660;DHT22;19064;47.912;12.308;2023-05-02T14:56:34;11.80;99.90
32660;DHT22;19064;47.912;12.308;2023-05-02T14:59:01;12.00;99.90
32660;DHT22;19064;47.912;12.308;2023-05-02T15:01:27;12.10;99.90
32660;DHT22;19064;47.912;12.308;2023-05-02T15:03:54;12.10;99.90
32660;DHT22;19064;47.912;12.308;2023-05-02T15:06:27;12.20;99.90
32660;DHT22;19064;47.912;12.308;2023-05-02T15:08:55;12.20;99.90
32660;DHT22;19064;47.912;12.308;2023-05-02T15:11:23;12.20;99.90
32660;DHT22;19064;47.912;12.308;2023-05-02T15:13:51;12.20;99.90
32660;DHT22;19064;47.912;12.308;2023-05-02T15:16:19;12.30;99.90
32660;DHT22;19064;47.912;12.308;2023-05-02T15:18:55;12.20;99.90
32660;DHT22;19064;47.912;12.308;2023-05-02T15:21:25;11.90;99.90
32660;DHT22;19064;47.912;12.308;2023-05-02T15:23:53;11.50;99.90
32660;DHT22;19064;47.912;12.308;2023-05-02T15:26:21;11.30;99.90
32660;DHT22;19064;47.912;12.308;2023-05-02T15:28:48;11.20;99.90
32660;DHT22;19064;47.912;12.308;2023-05-02T15:31:19;11.10;99.90
32660;DHT22;19064;47.912;12.308;2023-05-02T15:33:50;11.10;99.90
32660;DHT22;19064;47.912;12.308;2023-05-02T15:36:18;11.10;99.90